Pleasant Hill, OR (97455)

4:40 PM PDT on July 27, 2016 (GMT -0700)
Trent Area | | Change Station

Elev 600 ft 43.95 °N, 122.86 °W | Updated 28 seconds ago

Clear
Clear
89.1 °F
Feels Like 87 °F
N
0.0
Wind Variable Wind from SW
Gusts 0.0 mph

Today
High -- | Low -- °F
--% Chance of Precip.
Yesterday
High -- | Low -- °F
Precip. -- in
Pressure 30.03 in
Visibility 10.0 miles
Clouds Clear
Heat Index 87 °F
Dew Point 54 °F
Humidity 31%
Rainfall 0.00 in
Snow Depth Not available.
5:55 AM 8:40 PM
Last Quarter, 38% visible
METAR KEUG 272254Z 34017G21KT 10SM CLR 32/12 A3003 RMK AO2 SLP167 T03220117
Pressure 30.03 in
Visibility 10.0 miles
Clouds Clear
Heat Index 87 °F
Dew Point 54 °F
Humidity 31%
Rainfall 0.00 in
Snow Depth Not available.
5:55 AM 8:40 PM
Last Quarter, 38% visible
METAR KEUG 272254Z 34017G21KT 10SM CLR 32/12 A3003 RMK AO2 SLP167 T03220117

10-Day Weather Forecast

Almanac

Astronomy

Jul. 27, 2016 Rise Set
Actual Time
Civil Twilight
Nautical Twilight
Astronomical Twilight
Moon
Length of Visible Light
Length of Day
Tomorrow will be .
, % of the Moon is Illuminated

Today's Extremes

State Highs State Lows

Community

WunderPhotos

Upload Photos

1,927,957 photos uploaded!

WunderBlog® & News

Nearby

Air Quality

  Air Quality AQ Index Pollutant
Not available.

Snow Depth

Station Depth Elevation

Earthquake Activity

City Distance Mag. Time & Date
Minimum magnitude displayed is 2.5.

Coastal Water Temperatures

Place Temperature

Stations

Nearby Weather Stations

Station Location Temp. Windchill Dew Point Humidity Wind Precip. Elev Updated Type
                   

Watches & Warnings

There are currently no watches in effect.